sensor_id;sensor_type;location;lat;lon;timestamp;pressure;altitude;pressure_sealevel;temperature;humidity
64141;BME280;50436;50.618;7.932;2022-07-11T00:01:48;97279.38;;;13.72;100.00
64141;BME280;50436;50.618;7.932;2022-07-11T00:04:13;97273.66;;;13.68;100.00
64141;BME280;50436;50.618;7.932;2022-07-11T00:06:39;97276.75;;;13.77;100.00
64141;BME280;50436;50.618;7.932;2022-07-11T00:09:04;97268.75;;;13.82;100.00
64141;BME280;50436;50.618;7.932;2022-07-11T00:11:30;97269.88;;;13.86;100.00
64141;BME280;50436;50.618;7.932;2022-07-11T00:13:58;97268.88;;;13.92;100.00
64141;BME280;50436;50.618;7.932;2022-07-11T00:16:24;97269.19;;;13.96;100.00
64141;BME280;50436;50.618;7.932;2022-07-11T00:18:49;97269.50;;;13.99;100.00
64141;BME280;50436;50.618;7.932;2022-07-11T00:21:14;97266.31;;;14.02;100.00
64141;BME280;50436;50.618;7.932;2022-07-11T00:23:40;97257.72;;;14.05;100.00
64141;BME280;50436;50.618;7.932;2022-07-11T00:26:06;97262.84;;;14.07;100.00
64141;BME280;50436;50.618;7.932;2022-07-11T00:28:31;97263.13;;;14.05;100.00
64141;BME280;50436;50.618;7.932;2022-07-11T00:30:57;97265.69;;;13.95;100.00
64141;BME280;50436;50.618;7.932;2022-07-11T00:33:22;97268.00;;;13.86;100.00
64141;BME280;50436;50.618;7.932;2022-07-11T00:35:48;97264.19;;;13.82;100.00
64141;BME280;50436;50.618;7.932;2022-07-11T00:38:14;97260.94;;;13.80;100.00
64141;BME280;50436;50.618;7.932;2022-07-11T00:40:39;97260.13;;;13.80;100.00
64141;BME280;50436;50.618;7.932;2022-07-11T00:43:05;97267.94;;;13.81;100.00
64141;BME280;50436;50.618;7.932;2022-07-11T00:45:31;97256.91;;;13.83;100.00
64141;BME280;50436;50.618;7.932;2022-07-11T00:47:57;97260.16;;;13.85;100.00
64141;BME280;50436;50.618;7.932;2022-07-11T00:50:23;97256.88;;;13.78;100.00
64141;BME280;50436;50.618;7.932;2022-07-11T00:52:51;97261.75;;;13.81;100.00
64141;BME280;50436;50.618;7.932;2022-07-11T00:55:17;97255.22;;;13.77;100.00
64141;BME280;50436;50.618;7.932;2022-07-11T00:57:45;97255.56;;;13.80;100.00
64141;BME280;50436;50.618;7.932;2022-07-11T01:00:10;97253.16;;;13.84;100.00
64141;BME280;50436;50.618;7.932;2022-07-11T01:02:36;97248.91;;;13.88;100.00
64141;BME280;50436;50.618;7.932;2022-07-11T01:05:02;97244.66;;;13.92;100.00
64141;BME280;50436;50.618;7.932;2022-07-11T01:07:30;97241.47;;;13.95;100.00
64141;BME280;50436;50.618;7.932;2022-07-11T01:09:57;97245.78;;;13.96;100.00
64141;BME280;50436;50.618;7.932;2022-07-11T01:12:22;97246.84;;;13.95;100.00
64141;BME280;50436;50.618;7.932;2022-07-11T01:14:52;97246.34;;;13.98;100.00
64141;BME280;50436;50.618;7.932;2022-07-11T01:17:18;97243.63;;;13.93;100.00
64141;BME280;50436;50.618;7.932;2022-07-11T01:19:43;97235.59;;;13.98;100.00
64141;BME280;50436;50.618;7.932;2022-07-11T01:22:09;97238.91;;;13.83;100.00
64141;BME280;50436;50.618;7.932;2022-07-11T01:24:36;97242.72;;;13.87;100.00
64141;BME280;50436;50.618;7.932;2022-07-11T01:27:05;97236.59;;;13.92;100.00
64141;BME280;50436;50.618;7.932;2022-07-11T01:29:30;97235.59;;;13.98;100.00
64141;BME280;50436;50.618;7.932;2022-07-11T01:31:56;97235.09;;;14.01;100.00
64141;BME280;50436;50.618;7.932;2022-07-11T01:34:21;97230.81;;;14.05;100.00
64141;BME280;50436;50.618;7.932;2022-07-11T01:36:47;97230.28;;;14.03;100.00
64141;BME280;50436;50.618;7.932;2022-07-11T01:39:12;97221.94;;;14.05;100.00
64141;BME280;50436;50.618;7.932;2022-07-11T01:41:38;97223.56;;;14.06;100.00
64141;BME280;50436;50.618;7.932;2022-07-11T01:44:03;97224.34;;;14.01;100.00
64141;BME280;50436;50.618;7.932;2022-07-11T01:46:29;97217.31;;;14.00;100.00
64141;BME280;50436;50.618;7.932;2022-07-11T01:48:54;97223.28;;;14.02;100.00
64141;BME280;50436;50.618;7.932;2022-07-11T01:51:21;97216.00;;;14.03;100.00
64141;BME280;50436;50.618;7.932;2022-07-11T01:53:47;97206.59;;;14.05;100.00
64141;BME280;50436;50.618;7.932;2022-07-11T01:56:12;97211.72;;;14.07;100.00
64141;BME280;50436;50.618;7.932;2022-07-11T01:58:38;97209.84;;;14.07;100.00
64141;BME280;50436;50.618;7.932;2022-07-11T02:01:03;97206.88;;;14.04;100.00
64141;BME280;50436;50.618;7.932;2022-07-11T02:03:29;97210.91;;;14.06;100.00
64141;BME280;50436;50.618;7.932;2022-07-11T02:05:55;97206.59;;;14.05;100.00
64141;BME280;50436;50.618;7.932;2022-07-11T02:08:20;97205.06;;;14.09;100.00
64141;BME280;50436;50.618;7.932;2022-07-11T02:10:48;97211.25;;;14.10;100.00
64141;BME280;50436;50.618;7.932;2022-07-11T02:13:18;97200.47;;;14.10;100.00
64141;BME280;50436;50.618;7.932;2022-07-11T02:15:45;97211.44;;;14.03;100.00
64141;BME280;50436;50.618;7.932;2022-07-11T02:18:12;97200.94;;;14.02;100.00
64141;BME280;50436;50.618;7.932;2022-07-11T02:20:39;97208.41;;;14.00;100.00
64141;BME280;50436;50.618;7.932;2022-07-11T02:23:06;97209.81;;;14.02;100.00
64141;BME280;50436;50.618;7.932;2022-07-11T02:25:34;97209.31;;;14.05;100.00
64141;BME280;50436;50.618;7.932;2022-07-11T02:28:03;97208.50;;;14.05;100.00
64141;BME280;50436;50.618;7.932;2022-07-11T02:30:28;97208.19;;;14.01;100.00
64141;BME280;50436;50.618;7.932;2022-07-11T02:32:56;97199.88;;;14.03;100.00
64141;BME280;50436;50.618;7.932;2022-07-11T02:35:22;97203.91;;;14.05;100.00
64141;BME280;50436;50.618;7.932;2022-07-11T02:37:47;97203.38;;;14.03;100.00
64141;BME280;50436;50.618;7.932;2022-07-11T02:40:14;97200.66;;;14.03;100.00
64141;BME280;50436;50.618;7.932;2022-07-11T02:42:39;97198.25;;;14.02;100.00
64141;BME280;50436;50.618;7.932;2022-07-11T02:45:05;97196.03;;;13.99;100.00
64141;BME280;50436;50.618;7.932;2022-07-11T02:47:34;97200.34;;;14.00;100.00
64141;BME280;50436;50.618;7.932;2022-07-11T02:50:00;97191.78;;;14.03;100.00
64141;BME280;50436;50.618;7.932;2022-07-11T02:52:25;97202.81;;;14.01;100.00
64141;BME280;50436;50.618;7.932;2022-07-11T02:54:51;97202.81;;;14.01;100.00
64141;BME280;50436;50.618;7.932;2022-07-11T02:57:18;97199.28;;;14.01;100.00
64141;BME280;50436;50.618;7.932;2022-07-11T02:59:44;97204.44;;;14.02;100.00
64141;BME280;50436;50.618;7.932;2022-07-11T03:02:09;97196.09;;;14.04;100.00
64141;BME280;50436;50.618;7.932;2022-07-11T03:04:35;97195.84;;;14.05;100.00
64141;BME280;50436;50.618;7.932;2022-07-11T03:07:00;97201.75;;;14.02;100.00
64141;BME280;50436;50.618;7.932;2022-07-11T03:09:26;97205.44;;;13.96;100.00
64141;BME280;50436;50.618;7.932;2022-07-11T03:11:51;97214.94;;;13.82;100.00
64141;BME280;50436;50.618;7.932;2022-07-11T03:14:18;97219.44;;;13.76;100.00
64141;BME280;50436;50.618;7.932;2022-07-11T03:16:43;97231.94;;;13.65;100.00
64141;BME280;50436;50.618;7.932;2022-07-11T03:19:09;97230.25;;;13.59;100.00
64141;BME280;50436;50.618;7.932;2022-07-11T03:21:34;97219.06;;;13.68;100.00
64141;BME280;50436;50.618;7.932;2022-07-11T03:24:00;97221.50;;;13.69;100.00
64141;BME280;50436;50.618;7.932;2022-07-11T03:26:28;97226.13;;;13.74;100.00
64141;BME280;50436;50.618;7.932;2022-07-11T03:28:53;97225.63;;;13.77;100.00
64141;BME280;50436;50.618;7.932;2022-07-11T03:31:19;97232.41;;;13.79;100.00
64141;BME280;50436;50.618;7.932;2022-07-11T03:33:44;97223.28;;;13.80;100.00
64141;BME280;50436;50.618;7.932;2022-07-11T03:36:10;97223.28;;;13.80;100.00
64141;BME280;50436;50.618;7.932;2022-07-11T03:38:36;97226.03;;;13.85;100.00
64141;BME280;50436;50.618;7.932;2022-07-11T03:41:03;97224.34;;;13.79;100.00
64141;BME280;50436;50.618;7.932;2022-07-11T03:43:30;97225.16;;;13.80;100.00
64141;BME280;50436;50.618;7.932;2022-07-11T03:45:55;97227.31;;;13.83;100.00
64141;BME280;50436;50.618;7.932;2022-07-11T03:48:21;97223.09;;;13.87;100.00
64141;BME280;50436;50.618;7.932;2022-07-11T03:50:47;97223.38;;;13.90;100.00
64141;BME280;50436;50.618;7.932;2022-07-11T03:53:13;97220.44;;;13.92;100.00
64141;BME280;50436;50.618;7.932;2022-07-11T03:55:39;97212.13;;;13.93;100.00
64141;BME280;50436;50.618;7.932;2022-07-11T03:58:04;97221.06;;;13.99;100.00
64141;BME280;50436;50.618;7.932;2022-07-11T04:00:33;97212.25;;;14.04;100.00
64141;BME280;50436;50.618;7.932;2022-07-11T04:02:58;97208.22;;;14.06;100.00
64141;BME280;50436;50.618;7.932;2022-07-11T04:05:25;97210.44;;;14.09;100.00
64141;BME280;50436;50.618;7.932;2022-07-11T04:07:51;97209.03;;;14.07;100.00
64141;BME280;50436;50.618;7.932;2022-07-11T04:10:16;97212.06;;;14.10;100.00
64141;BME280;50436;50.618;7.932;2022-07-11T04:12:45;97207.16;;;14.07;100.00
64141;BME280;50436;50.618;7.932;2022-07-11T04:15:11;97217.63;;;14.04;100.00
64141;BME280;50436;50.618;7.932;2022-07-11T04:17:37;97213.50;;;13.96;100.00
64141;BME280;50436;50.618;7.932;2022-07-11T04:20:04;97215.06;;;13.92;100.00
64141;BME280;50436;50.618;7.932;2022-07-11T04:22:29;97216.38;;;13.89;100.00
64141;BME280;50436;50.618;7.932;2022-07-11T04:24:55;97225.00;;;13.91;100.00
64141;BME280;50436;50.618;7.932;2022-07-11T04:27:20;97217.00;;;13.97;100.00
64141;BME280;50436;50.618;7.932;2022-07-11T04:29:46;97228.06;;;14.00;100.00
64141;BME280;50436;50.618;7.932;2022-07-11T04:32:12;97222.19;;;14.03;100.00
64141;BME280;50436;50.618;7.932;2022-07-11T04:34:37;97224.44;;;13.89;100.00
64141;BME280;50436;50.618;7.932;2022-07-11T04:37:03;97224.25;;;13.96;100.00
64141;BME280;50436;50.618;7.932;2022-07-11T04:39:31;97229.03;;;13.89;100.00
64141;BME280;50436;50.618;7.932;2022-07-11T04:42:00;97219.94;;;13.95;100.00
64141;BME280;50436;50.618;7.932;2022-07-11T04:44:27;97222.94;;;13.99;100.00
64141;BME280;50436;50.618;7.932;2022-07-11T04:46:53;97222.69;;;14.00;100.00
64141;BME280;50436;50.618;7.932;2022-07-11T04:49:19;97216.56;;;14.05;100.00
64141;BME280;50436;50.618;7.932;2022-07-11T04:51:45;97216.03;;;14.08;100.00
64141;BME280;50436;50.618;7.932;2022-07-11T04:54:10;97209.91;;;14.12;100.00
64141;BME280;50436;50.618;7.932;2022-07-11T04:56:36;97217.03;;;14.23;100.00
64141;BME280;50436;50.618;7.932;2022-07-11T04:59:03;97223.84;;;14.31;100.00
64141;BME280;50436;50.618;7.932;2022-07-11T05:01:29;97225.16;;;14.29;100.00
64141;BME280;50436;50.618;7.932;2022-07-11T05:03:55;97227.91;;;14.34;100.00
64141;BME280;50436;50.618;7.932;2022-07-11T05:06:21;97226.31;;;14.38;100.00
64141;BME280;50436;50.618;7.932;2022-07-11T05:08:47;97233.34;;;14.39;100.00
64141;BME280;50436;50.618;7.932;2022-07-11T05:11:12;97228.41;;;14.53;100.00
64141;BME280;50436;50.618;7.932;2022-07-11T05:13:38;97231.41;;;14.56;100.00
64141;BME280;50436;50.618;7.932;2022-07-11T05:16:03;97237.53;;;14.52;100.00
64141;BME280;50436;50.618;7.932;2022-07-11T05:18:29;97236.78;;;14.56;100.00
64141;BME280;50436;50.618;7.932;2022-07-11T05:20:54;97237.34;;;14.58;100.00
64141;BME280;50436;50.618;7.932;2022-07-11T05:23:21;97234.72;;;14.63;100.00
64141;BME280;50436;50.618;7.932;2022-07-11T05:25:46;97234.13;;;14.61;100.00
64141;BME280;50436;50.618;7.932;2022-07-11T05:28:12;97248.75;;;14.70;100.00
64141;BME280;50436;50.618;7.932;2022-07-11T05:30:37;97246.63;;;14.72;100.00
64141;BME280;50436;50.618;7.932;2022-07-11T05:33:03;97252.31;;;14.76;100.00
64141;BME280;50436;50.618;7.932;2022-07-11T05:35:28;97251.84;;;14.84;100.00
64141;BME280;50436;50.618;7.932;2022-07-11T05:37:54;97248.69;;;14.92;100.00
64141;BME280;50436;50.618;7.932;2022-07-11T05:40:19;97254.38;;;14.96;100.00
64141;BME280;50436;50.618;7.932;2022-07-11T05:42:45;97263.00;;;14.98;100.00
64141;BME280;50436;50.618;7.932;2022-07-11T05:45:11;97256.00;;;14.97;100.00
64141;BME280;50436;50.618;7.932;2022-07-11T05:47:37;97257.09;;;15.01;100.00
64141;BME280;50436;50.618;7.932;2022-07-11T05:50:03;97245.50;;;15.00;100.00
64141;BME280;50436;50.618;7.932;2022-07-11T05:52:29;97253.38;;;15.07;100.00
64141;BME280;50436;50.618;7.932;2022-07-11T05:54:54;97253.97;;;15.14;100.00
64141;BME280;50436;50.618;7.932;2022-07-11T05:57:20;97252.88;;;15.10;100.00
64141;BME280;50436;50.618;7.932;2022-07-11T05:59:45;97252.38;;;15.13;100.00
64141;BME280;50436;50.618;7.932;2022-07-11T06:02:11;97249.72;;;15.18;100.00
64141;BME280;50436;50.618;7.932;2022-07-11T06:04:39;97234.13;;;15.25;100.00
64141;BME280;50436;50.618;7.932;2022-07-11T06:07:08;97242.50;;;15.29;100.00
64141;BME280;50436;50.618;7.932;2022-07-11T06:09:33;97243.94;;;15.42;100.00
64141;BME280;50436;50.618;7.932;2022-07-11T06:11:59;97239.63;;;15.46;100.00
64141;BME280;50436;50.618;7.932;2022-07-11T06:14:24;97247.44;;;15.42;100.00
64141;BME280;50436;50.618;7.932;2022-07-11T06:16:50;97246.00;;;15.29;100.00
64141;BME280;50436;50.618;7.932;2022-07-11T06:19:16;97244.50;;;15.44;100.00
64141;BME280;50436;50.618;7.932;2022-07-11T06:21:41;97247.84;;;15.61;100.00
64141;BME280;50436;50.618;7.932;2022-07-11T06:24:07;97250.63;;;15.76;100.00
64141;BME280;50436;50.618;7.932;2022-07-11T06:26:32;97244.16;;;15.77;100.00
64141;BME280;50436;50.618;7.932;2022-07-11T06:28:58;97251.91;;;15.64;100.00
64141;BME280;50436;50.618;7.932;2022-07-11T06:31:23;97253.25;;;15.61;100.00
64141;BME280;50436;50.618;7.932;2022-07-11T06:33:49;97263.91;;;15.46;100.00
64141;BME280;50436;50.618;7.932;2022-07-11T06:36:25;97248.53;;;15.46;100.00
64141;BME280;50436;50.618;7.932;2022-07-11T06:38:51;97252.66;;;15.59;100.00
64141;BME280;50436;50.618;7.932;2022-07-11T06:41:16;97245.22;;;15.76;100.00
64141;BME280;50436;50.618;7.932;2022-07-11T06:43:42;97240.97;;;15.85;100.00
64141;BME280;50436;50.618;7.932;2022-07-11T06:46:07;97242.63;;;16.02;100.00
64141;BME280;50436;50.618;7.932;2022-07-11T06:48:33;97235.88;;;15.99;100.00
64141;BME280;50436;50.618;7.932;2022-07-11T06:50:58;97250.44;;;15.93;100.00
64141;BME280;50436;50.618;7.932;2022-07-11T06:53:24;97243.81;;;16.21;100.00
64141;BME280;50436;50.618;7.932;2022-07-11T06:55:49;97238.44;;;16.36;100.00
64141;BME280;50436;50.618;7.932;2022-07-11T06:58:15;97246.03;;;16.55;100.00
64141;BME280;50436;50.618;7.932;2022-07-11T07:01:04;97245.00;;;16.71;100.00
64141;BME280;50436;50.618;7.932;2022-07-11T07:03:32;97243.63;;;16.68;100.00
64141;BME280;50436;50.618;7.932;2022-07-11T07:05:58;97253.94;;;16.71;100.00
64141;BME280;50436;50.618;7.932;2022-07-11T07:08:25;97246.63;;;16.72;100.00
64141;BME280;50436;50.618;7.932;2022-07-11T07:10:51;97252.28;;;16.65;100.00
64141;BME280;50436;50.618;7.932;2022-07-11T07:13:17;97245.50;;;16.63;100.00
64141;BME280;50436;50.618;7.932;2022-07-11T07:15:43;97248.00;;;16.69;100.00
64141;BME280;50436;50.618;7.932;2022-07-11T07:18:08;97254.78;;;16.82;100.00
64141;BME280;50436;50.618;7.932;2022-07-11T07:20:33;97249.09;;;16.94;100.00
64141;BME280;50436;50.618;7.932;2022-07-11T07:22:59;97249.63;;;17.01;100.00
64141;BME280;50436;50.618;7.932;2022-07-11T07:25:24;97250.97;;;16.88;100.00
64141;BME280;50436;50.618;7.932;2022-07-11T07:27:51;97260.34;;;16.45;100.00
64141;BME280;50436;50.618;7.932;2022-07-11T07:30:17;97268.63;;;16.13;100.00
64141;BME280;50436;50.618;7.932;2022-07-11T07:32:42;97271.88;;;16.25;100.00
64141;BME280;50436;50.618;7.932;2022-07-11T07:35:08;97267.06;;;16.37;100.00
64141;BME280;50436;50.618;7.932;2022-07-11T07:37:33;97262.81;;;16.67;100.00
64141;BME280;50436;50.618;7.932;2022-07-11T07:39:59;97265.59;;;16.92;100.00
64141;BME280;50436;50.618;7.932;2022-07-11T07:42:24;97263.97;;;17.17;100.00
64141;BME280;50436;50.618;7.932;2022-07-11T07:44:49;97263.41;;;17.40;100.00
64141;BME280;50436;50.618;7.932;2022-07-11T07:47:15;97264.44;;;17.65;100.00
64141;BME280;50436;50.618;7.932;2022-07-11T07:49:41;97268.50;;;17.83;100.00
64141;BME280;50436;50.618;7.932;2022-07-11T07:52:07;97260.88;;;17.95;100.00
64141;BME280;50436;50.618;7.932;2022-07-11T07:54:32;97260.28;;;18.08;100.00
64141;BME280;50436;50.618;7.932;2022-07-11T07:56:58;97261.06;;;18.19;100.00
64141;BME280;50436;50.618;7.932;2022-07-11T07:59:23;97251.00;;;18.24;100.00
64141;BME280;50436;50.618;7.932;2022-07-11T08:01:51;97261.56;;;18.21;100.00
64141;BME280;50436;50.618;7.932;2022-07-11T08:04:17;97258.84;;;18.31;100.00
64141;BME280;50436;50.618;7.932;2022-07-11T08:06:42;97256.13;;;18.31;100.00
64141;BME280;50436;50.618;7.932;2022-07-11T08:09:08;97260.22;;;18.23;100.00
64141;BME280;50436;50.618;7.932;2022-07-11T08:11:34;97260.81;;;18.15;100.00
64141;BME280;50436;50.618;7.932;2022-07-11T08:14:00;97267.34;;;18.04;100.00
64141;BME280;50436;50.618;7.932;2022-07-11T08:16:27;97276.63;;;17.83;100.00
64141;BME280;50436;50.618;7.932;2022-07-11T08:18:54;97274.16;;;17.91;100.00
64141;BME280;50436;50.618;7.932;2022-07-11T08:21:21;97273.19;;;18.31;100.00
64141;BME280;50436;50.618;7.932;2022-07-11T08:23:47;97279.34;;;18.52;100.00
64141;BME280;50436;50.618;7.932;2022-07-11T08:26:12;97277.06;;;18.64;100.00
64141;BME280;50436;50.618;7.932;2022-07-11T08:28:38;97273.28;;;18.71;100.00
64141;BME280;50436;50.618;7.932;2022-07-11T08:31:07;97276.84;;;18.61;100.00
64141;BME280;50436;50.618;7.932;2022-07-11T08:33:33;97274.50;;;18.39;100.00
64141;BME280;50436;50.618;7.932;2022-07-11T08:35:59;97273.72;;;18.28;100.00
64141;BME280;50436;50.618;7.932;2022-07-11T08:38:24;97276.78;;;18.17;100.00
64141;BME280;50436;50.618;7.932;2022-07-11T08:40:50;97271.81;;;18.39;100.00
64141;BME280;50436;50.618;7.932;2022-07-11T08:43:17;97269.75;;;18.65;100.00
64141;BME280;50436;50.618;7.932;2022-07-11T08:45:43;97272.91;;;18.82;100.00
64141;BME280;50436;50.618;7.932;2022-07-11T08:48:09;97273.00;;;19.06;100.00
64141;BME280;50436;50.618;7.932;2022-07-11T08:50:35;97271.69;;;19.04;100.00
64141;BME280;50436;50.618;7.932;2022-07-11T08:53:03;97276.53;;;19.41;100.00
64141;BME280;50436;50.618;7.932;2022-07-11T08:55:29;97275.53;;;19.66;100.00
64141;BME280;50436;50.618;7.932;2022-07-11T08:57:55;97274.03;;;19.79;100.00
64141;BME280;50436;50.618;7.932;2022-07-11T09:00:22;97271.88;;;19.46;100.00
64141;BME280;50436;50.618;7.932;2022-07-11T09:02:48;97268.13;;;19.08;100.00
64141;BME280;50436;50.618;7.932;2022-07-11T09:05:14;97265.03;;;18.91;100.00
64141;BME280;50436;50.618;7.932;2022-07-11T09:07:47;97266.69;;;18.82;100.00
64141;BME280;50436;50.618;7.932;2022-07-11T09:10:14;97266.16;;;18.85;100.00
64141;BME280;50436;50.618;7.932;2022-07-11T09:13:01;97270.03;;;19.08;100.00
64141;BME280;50436;50.618;7.932;2022-07-11T09:15:46;97276.38;;;19.27;100.00
64141;BME280;50436;50.618;7.932;2022-07-11T09:23:46;97260.75;;;20.25;100.00
64141;BME280;50436;50.618;7.932;2022-07-11T09:26:36;97253.31;;;20.54;100.00
64141;BME280;50436;50.618;7.932;2022-07-11T09:29:08;97249.03;;;20.67;100.00
64141;BME280;50436;50.618;7.932;2022-07-11T09:31:36;97259.25;;;20.94;100.00
64141;BME280;50436;50.618;7.932;2022-07-11T09:34:05;97261.56;;;21.20;100.00
64141;BME280;50436;50.618;7.932;2022-07-11T09:36:51;97264.66;;;21.13;100.00
64141;BME280;50436;50.618;7.932;2022-07-11T09:39:19;97259.41;;;21.03;100.00
64141;BME280;50436;50.618;7.932;2022-07-11T09:41:46;97255.28;;;20.86;100.00
64141;BME280;50436;50.618;7.932;2022-07-11T09:44:23;97259.56;;;20.55;100.00
64141;BME280;50436;50.618;7.932;2022-07-11T09:46:51;97270.13;;;20.75;100.00
64141;BME280;50436;50.618;7.932;2022-07-11T09:49:28;97256.75;;;20.98;100.00
64141;BME280;50436;50.618;7.932;2022-07-11T09:51:54;97275.38;;;21.23;100.00
64141;BME280;50436;50.618;7.932;2022-07-11T09:54:23;97273.25;;;21.39;100.00
64141;BME280;50436;50.618;7.932;2022-07-11T09:56:49;97273.94;;;21.63;100.00
64141;BME280;50436;50.618;7.932;2022-07-11T09:59:17;97265.56;;;21.74;100.00
64141;BME280;50436;50.618;7.932;2022-07-11T10:01:44;97268.16;;;22.11;100.00
64141;BME280;50436;50.618;7.932;2022-07-11T10:04:10;97263.19;;;22.27;100.00
64141;BME280;50436;50.618;7.932;2022-07-11T10:06:37;97263.44;;;22.67;100.00
64141;BME280;50436;50.618;7.932;2022-07-11T10:09:04;97252.38;;;22.72;100.00
64141;BME280;50436;50.618;7.932;2022-07-11T10:11:31;97265.28;;;22.44;100.00
64141;BME280;50436;50.618;7.932;2022-07-11T10:14:03;97264.56;;;21.83;100.00
64141;BME280;50436;50.618;7.932;2022-07-11T10:22:09;97259.59;;;21.06;100.00
64141;BME280;50436;50.618;7.932;2022-07-11T10:24:52;97265.47;;;21.13;100.00
64141;BME280;50436;50.618;7.932;2022-07-11T10:27:38;97268.06;;;21.56;100.00
64141;BME280;50436;50.618;7.932;2022-07-11T10:30:08;97260.63;;;21.89;100.00
64141;BME280;50436;50.618;7.932;2022-07-11T10:32:57;97268.91;;;21.98;100.00
64141;BME280;50436;50.618;7.932;2022-07-11T10:35:23;97262.78;;;22.34;100.00
64141;BME280;50436;50.618;7.932;2022-07-11T10:37:51;97268.38;;;22.65;100.00
64141;BME280;50436;50.618;7.932;2022-07-11T10:43:41;97263.59;;;22.34;100.00
64141;BME280;50436;50.618;7.932;2022-07-11T10:46:18;97265.41;;;22.11;100.00
64141;BME280;50436;50.618;7.932;2022-07-11T10:49:02;97266.00;;;22.36;100.00
64141;BME280;50436;50.618;7.932;2022-07-11T11:00:11;97270.34;;;21.95;100.00
64141;BME280;50436;50.618;7.932;2022-07-11T11:03:06;97276.00;;;22.13;100.00
64141;BME280;50436;50.618;7.932;2022-07-11T11:05:52;97279.41;;;22.05;100.00
64141;BME280;50436;50.618;7.932;2022-07-11T11:13:44;97283.72;;;21.78;100.00
64141;BME280;50436;50.618;7.932;2022-07-11T11:18:46;97288.31;;;22.24;100.00
64141;BME280;50436;50.618;7.932;2022-07-11T11:23:37;97292.47;;;22.21;100.00
64141;BME280;50436;50.618;7.932;2022-07-11T11:26:14;97289.13;;;21.51;100.00
64141;BME280;50436;50.618;7.932;2022-07-11T11:29:09;97293.25;;;21.48;100.00
64141;BME280;50436;50.618;7.932;2022-07-11T11:31:35;97297.38;;;21.27;100.00
64141;BME280;50436;50.618;7.932;2022-07-11T11:34:02;97296.00;;;21.29;100.00
64141;BME280;50436;50.618;7.932;2022-07-11T11:36:28;97290.63;;;21.05;100.00
64141;BME280;50436;50.618;7.932;2022-07-11T11:38:57;97289.81;;;21.42;100.00
64141;BME280;50436;50.618;7.932;2022-07-11T11:41:26;97288.97;;;22.71;100.00
64141;BME280;50436;50.618;7.932;2022-07-11T11:43:54;97289.38;;;23.59;100.00
64141;BME280;50436;50.618;7.932;2022-07-11T11:46:28;97288.81;;;23.48;100.00
64141;BME280;50436;50.618;7.932;2022-07-11T11:48:55;97287.00;;;22.49;100.00
64141;BME280;50436;50.618;7.932;2022-07-11T11:51:22;97292.00;;;22.69;100.00
64141;BME280;50436;50.618;7.932;2022-07-11T11:54:02;97286.78;;;22.45;100.00
64141;BME280;50436;50.618;7.932;2022-07-11T11:56:30;97288.84;;;22.12;100.00
64141;BME280;50436;50.618;7.932;2022-07-11T11:59:05;97298.31;;;21.68;100.00
64141;BME280;50436;50.618;7.932;2022-07-11T12:01:34;97297.84;;;20.77;100.00
64141;BME280;50436;50.618;7.932;2022-07-11T12:04:02;97304.56;;;20.18;100.00
64141;BME280;50436;50.618;7.932;2022-07-11T12:06:31;97298.84;;;20.20;100.00
64141;BME280;50436;50.618;7.932;2022-07-11T12:09:02;97292.19;;;20.93;100.00
64141;BME280;50436;50.618;7.932;2022-07-11T12:11:29;97296.94;;;21.01;100.00
64141;BME280;50436;50.618;7.932;2022-07-11T12:13:59;97291.66;;;20.91;100.00
64141;BME280;50436;50.618;7.932;2022-07-11T12:16:25;97288.50;;;20.83;100.00
64141;BME280;50436;50.618;7.932;2022-07-11T12:19:25;97294.75;;;21.40;100.00
64141;BME280;50436;50.618;7.932;2022-07-11T12:21:53;97294.31;;;21.93;100.00
64141;BME280;50436;50.618;7.932;2022-07-11T12:24:23;97301.38;;;22.91;100.00
64141;BME280;50436;50.618;7.932;2022-07-11T12:26:53;97292.97;;;23.23;100.00
64141;BME280;50436;50.618;7.932;2022-07-11T12:29:21;97286.72;;;23.23;100.00
64141;BME280;50436;50.618;7.932;2022-07-11T12:31:51;97293.22;;;23.13;100.00
64141;BME280;50436;50.618;7.932;2022-07-11T12:34:23;97291.16;;;23.19;100.00
64141;BME280;50436;50.618;7.932;2022-07-11T12:37:01;97295.84;;;23.94;98.72
64141;BME280;50436;50.618;7.932;2022-07-11T12:39:29;97286.63;;;24.12;96.45
64141;BME280;50436;50.618;7.932;2022-07-11T12:41:58;97283.41;;;24.85;92.56
64141;BME280;50436;50.618;7.932;2022-07-11T12:44:25;97285.19;;;24.24;95.67
64141;BME280;50436;50.618;7.932;2022-07-11T12:47:10;97290.81;;;23.87;100.00
64141;BME280;50436;50.618;7.932;2022-07-11T12:49:36;97275.91;;;22.82;100.00
64141;BME280;50436;50.618;7.932;2022-07-11T12:52:02;97280.25;;;22.83;100.00
64141;BME280;50436;50.618;7.932;2022-07-11T12:54:31;97283.75;;;22.47;100.00
64141;BME280;50436;50.618;7.932;2022-07-11T12:56:58;97291.75;;;22.16;100.00
64141;BME280;50436;50.618;7.932;2022-07-11T12:59:26;97281.41;;;21.99;100.00
64141;BME280;50436;50.618;7.932;2022-07-11T13:02:05;97288.63;;;22.22;100.00
64141;BME280;50436;50.618;7.932;2022-07-11T13:10:04;97277.31;;;28.13;77.46
64141;BME280;50436;50.618;7.932;2022-07-11T13:12:30;97270.44;;;28.19;73.11
64141;BME280;50436;50.618;7.932;2022-07-11T13:15:00;97272.34;;;25.97;85.05
64141;BME280;50436;50.618;7.932;2022-07-11T13:17:47;97276.09;;;24.37;90.64
64141;BME280;50436;50.618;7.932;2022-07-11T13:20:18;97277.75;;;23.53;98.20
64141;BME280;50436;50.618;7.932;2022-07-11T13:22:45;97278.38;;;22.56;100.00
64141;BME280;50436;50.618;7.932;2022-07-11T13:25:12;97284.47;;;22.52;100.00
64141;BME280;50436;50.618;7.932;2022-07-11T13:27:40;97276.19;;;22.58;100.00
64141;BME280;50436;50.618;7.932;2022-07-11T13:30:07;97274.91;;;22.41;100.00
64141;BME280;50436;50.618;7.932;2022-07-11T13:32:38;97269.56;;;23.53;99.14